createdAt,value
2019-04-27T00:00:04.257Z,109.90
2019-04-27T00:01:05.220Z,104.60
2019-04-27T00:02:05.674Z,108.30
2019-04-27T00:03:06.105Z,106.30
2019-04-27T00:04:04.212Z,100.50
2019-04-27T00:05:04.158Z,101.80
2019-04-27T00:06:07.500Z,101.20
2019-04-27T00:07:04.122Z,104.50
2019-04-27T00:08:04.105Z,111.80
2019-04-27T00:09:07.496Z,112.10
2019-04-27T00:10:04.065Z,107.80
2019-04-27T00:11:08.378Z,102.90
2019-04-27T00:12:05.695Z,107.00
2019-04-27T00:13:05.823Z,108.60
2019-04-27T00:14:03.992Z,112.70
2019-04-27T00:15:03.971Z,111.70
2019-04-27T00:16:09.716Z,112.20
2019-04-27T00:17:03.975Z,110.70
2019-04-27T00:18:03.910Z,106.80
2019-04-27T00:19:04.029Z,106.80
2019-04-27T00:20:04.440Z,105.00
2019-04-27T00:21:03.848Z,108.80
2019-04-27T00:22:03.833Z,112.10
2019-04-27T00:23:03.811Z,106.00
2019-04-27T00:24:03.792Z,105.50
2019-04-27T00:25:03.786Z,108.20
2019-04-27T00:26:03.754Z,105.00
2019-04-27T00:27:03.736Z,105.80
2019-04-27T00:28:05.391Z,109.60
2019-04-27T00:29:03.890Z,108.50
2019-04-27T00:30:04.008Z,105.20
2019-04-27T00:31:03.654Z,108.50
2019-04-27T00:32:04.233Z,111.40
2019-04-27T00:33:05.417Z,105.80
2019-04-27T00:34:03.763Z,107.80
2019-04-27T00:35:03.872Z,110.10
2019-04-27T00:36:03.554Z,103.90
2019-04-27T00:37:03.787Z,103.80
2019-04-27T00:38:03.517Z,105.10
2019-04-27T00:39:05.184Z,106.80
2019-04-27T00:40:03.566Z,108.00
2019-04-27T00:41:03.463Z,113.00
2019-04-27T00:42:03.446Z,108.30
2019-04-27T00:43:03.431Z,107.90
2019-04-27T00:44:03.498Z,107.30
2019-04-27T00:45:05.405Z,106.50
2019-04-27T00:46:04.041Z,105.00
2019-04-27T00:47:03.588Z,107.90
2019-04-27T00:48:03.677Z,109.80
2019-04-27T00:49:03.755Z,106.80
2019-04-27T00:50:03.644Z,107.40
2019-04-27T00:51:04.251Z,109.00
2019-04-27T00:52:03.694Z,109.70
2019-04-27T00:53:03.546Z,107.50
2019-04-27T00:54:04.675Z,105.50
2019-04-27T00:55:03.253Z,105.60
2019-04-27T00:56:03.909Z,107.70
2019-04-27T00:57:03.302Z,105.80
2019-04-27T00:58:04.153Z,108.80
2019-04-27T00:59:03.501Z,109.70
2019-04-27T01:00:04.917Z,113.10
2019-04-27T01:01:04.115Z,113.40
2019-04-27T01:02:03.778Z,112.50
2019-04-27T01:03:03.830Z,117.30
2019-04-27T01:04:03.763Z,115.00
2019-04-27T01:05:03.783Z,115.80
2019-04-27T01:06:03.311Z,111.20
2019-04-27T01:07:03.035Z,114.10
2019-04-27T01:08:03.825Z,112.90
2019-04-27T01:09:03.556Z,116.70
2019-04-27T01:10:05.152Z,113.20
2019-04-27T01:11:03.044Z,113.40
2019-04-27T01:12:03.635Z,112.20
2019-04-27T01:13:03.365Z,113.70
2019-04-27T01:14:03.850Z,115.90
2019-04-27T01:15:03.664Z,121.30
2019-04-27T01:16:02.821Z,126.50
2019-04-27T01:17:02.803Z,119.10
2019-04-27T01:18:12.329Z,118.40
2019-04-27T01:19:02.765Z,120.70
2019-04-27T01:20:02.748Z,121.00
2019-04-27T01:21:02.728Z,119.50
2019-04-27T01:22:02.716Z,119.60
2019-04-27T01:23:02.697Z,118.80
2019-04-27T01:24:02.674Z,119.30
2019-04-27T01:25:02.658Z,119.30
2019-04-27T01:26:02.639Z,121.30
2019-04-27T01:27:02.619Z,122.70
2019-04-27T01:28:02.615Z,119.30
2019-04-27T01:29:02.586Z,120.70
2019-04-27T01:30:02.566Z,120.70
2019-04-27T01:31:02.549Z,124.30
2019-04-27T01:32:02.530Z,126.30
2019-04-27T01:33:02.512Z,122.20
2019-04-27T01:34:02.497Z,122.40
2019-04-27T01:35:02.480Z,121.20
2019-04-27T01:36:02.460Z,125.60
2019-04-27T01:37:02.446Z,125.30
2019-04-27T01:38:02.423Z,128.00
2019-04-27T01:39:02.407Z,127.90
2019-04-27T01:40:02.390Z,128.20
2019-04-27T01:41:02.366Z,126.00
2019-04-27T01:42:02.351Z,126.90
2019-04-27T01:43:02.335Z,129.30
2019-04-27T01:44:02.319Z,128.40
2019-04-27T01:45:02.295Z,127.90
2019-04-27T01:46:02.280Z,126.90
2019-04-27T01:47:02.261Z,129.20
2019-04-27T01:48:02.245Z,128.10
2019-04-27T01:49:02.221Z,127.40
2019-04-27T01:50:02.205Z,129.40
2019-04-27T01:51:02.189Z,132.00
2019-04-27T01:52:02.170Z,131.40
2019-04-27T01:53:02.151Z,134.10
2019-04-27T01:54:02.132Z,131.80
2019-04-27T01:55:02.116Z,135.40
2019-04-27T01:56:02.097Z,134.20
2019-04-27T01:57:04.232Z,137.50
2019-04-27T01:58:02.064Z,139.10
2019-04-27T01:59:02.047Z,140.90
2019-04-27T02:00:02.034Z,143.20
2019-04-27T02:01:02.009Z,138.20
2019-04-27T02:02:01.987Z,137.00
2019-04-27T02:03:01.975Z,141.30
2019-04-27T02:04:01.954Z,139.00
2019-04-27T02:05:01.972Z,142.40
2019-04-27T02:06:01.916Z,138.80
2019-04-27T02:07:01.915Z,142.20
2019-04-27T02:08:01.882Z,143.50
2019-04-27T02:09:01.863Z,139.80
2019-04-27T02:10:01.851Z,141.20
2019-04-27T02:11:01.829Z,143.00
2019-04-27T02:12:01.808Z,135.50
2019-04-27T02:13:01.791Z,143.50
2019-04-27T02:14:01.775Z,141.30
2019-04-27T02:15:01.758Z,144.10
2019-04-27T02:16:01.739Z,140.10
2019-04-27T02:17:01.719Z,141.10
2019-04-27T02:18:01.704Z,137.20
2019-04-27T02:19:01.687Z,139.30
2019-04-27T02:20:01.666Z,139.30
2019-04-27T02:21:01.649Z,137.40
2019-04-27T02:22:01.632Z,140.60
2019-04-27T02:23:01.623Z,144.30
2019-04-27T02:24:01.599Z,140.50
2019-04-27T02:25:01.575Z,139.70
2019-04-27T02:26:01.560Z,142.80
2019-04-27T02:27:01.554Z,143.80
2019-04-27T02:28:01.521Z,141.60
2019-04-27T02:29:01.501Z,140.70
2019-04-27T02:30:01.594Z,133.60
2019-04-27T02:31:02.038Z,132.10
2019-04-27T02:32:03.049Z,131.50
2019-04-27T02:33:01.445Z,133.10
2019-04-27T02:34:01.415Z,132.70
2019-04-27T02:35:01.410Z,138.10
2019-04-27T02:36:01.391Z,137.90
2019-04-27T02:37:02.616Z,135.60
2019-04-27T02:38:01.346Z,138.90
2019-04-27T02:39:01.329Z,135.70
2019-04-27T02:40:01.314Z,136.60
2019-04-27T02:41:01.289Z,134.60
2019-04-27T02:42:01.275Z,128.30
2019-04-27T02:43:01.258Z,129.80
2019-04-27T02:44:01.733Z,125.80
2019-04-27T02:45:01.221Z,131.00
2019-04-27T02:46:01.202Z,134.50
2019-04-27T02:47:01.184Z,130.90
2019-04-27T02:48:01.167Z,127.70
2019-04-27T02:49:06.367Z,121.80
2019-04-27T02:50:01.139Z,124.50
2019-04-27T02:51:01.113Z,122.20
2019-04-27T02:52:01.092Z,122.20
2019-04-27T02:53:03.238Z,116.70
2019-04-27T02:54:01.059Z,118.10
2019-04-27T02:55:01.039Z,114.20
2019-04-27T02:56:01.019Z,108.40
2019-04-27T02:57:01.004Z,121.90
2019-04-27T02:58:00.980Z,104.90
2019-04-27T02:59:00.969Z,101.70
2019-04-27T03:00:00.945Z,114.10
2019-04-27T03:01:00.934Z,98.10
2019-04-27T03:02:00.988Z,95.00
2019-04-27T03:03:02.444Z,96.80
2019-04-27T03:04:00.878Z,91.60
2019-04-27T03:05:01.033Z,89.00
2019-04-27T03:06:00.839Z,84.00
2019-04-27T03:07:00.821Z,79.40
2019-04-27T03:08:00.821Z,76.00
2019-04-27T03:09:00.917Z,72.20
2019-04-27T03:10:02.381Z,61.70
2019-04-27T03:11:01.313Z,65.80
2019-04-27T03:12:00.732Z,67.30
2019-04-27T03:13:00.712Z,65.00
2019-04-27T03:14:00.689Z,66.20
2019-04-27T03:15:00.676Z,63.20
2019-04-27T03:16:00.684Z,63.30
2019-04-27T03:17:00.639Z,59.30
2019-04-27T03:18:00.622Z,58.50
2019-04-27T03:19:13.473Z,57.10
2019-04-27T03:20:00.590Z,57.50
2019-04-27T03:21:00.613Z,61.80
2019-04-27T03:22:00.552Z,57.50
2019-04-27T03:23:00.528Z,57.40
2019-04-27T03:24:00.512Z,57.10
2019-04-27T03:25:00.492Z,55.10
2019-04-27T03:26:00.551Z,56.90
2019-04-27T03:27:00.756Z,53.70
2019-04-27T03:28:02.615Z,52.00
2019-04-27T03:29:00.426Z,52.70
2019-04-27T03:30:00.403Z,50.90
2019-04-27T03:31:02.402Z,52.60
2019-04-27T03:32:01.896Z,53.40
2019-04-27T03:33:03.192Z,52.50
2019-04-27T03:34:05.174Z,51.40
2019-04-27T03:35:02.904Z,50.40
2019-04-27T03:36:02.576Z,50.30
2019-04-27T03:37:00.275Z,48.20
2019-04-27T03:38:00.620Z,48.70
2019-04-27T03:39:00.271Z,47.90
2019-04-27T03:40:00.357Z,51.70
2019-04-27T03:41:00.572Z,51.10
2019-04-27T03:42:00.332Z,49.50
2019-04-27T03:43:00.171Z,50.50
2019-04-27T03:44:00.148Z,48.50
2019-04-27T03:45:00.710Z,49.90
2019-04-27T03:46:00.678Z,47.40
2019-04-27T03:47:00.094Z,45.50
2019-04-27T03:48:00.477Z,47.00
2019-04-27T03:49:00.260Z,48.00
2019-04-27T03:50:00.337Z,49.10
2019-04-27T03:51:00.021Z,50.40
2019-04-27T03:52:02.937Z,46.60
2019-04-27T03:53:00.111Z,43.00
2019-04-27T03:54:00.586Z,46.20
2019-04-27T03:54:59.986Z,43.90
2019-04-27T03:56:00.149Z,48.50
2019-04-27T03:57:02.303Z,44.70
2019-04-27T03:58:00.218Z,43.80
2019-04-27T03:58:59.972Z,42.50
2019-04-27T04:00:00.168Z,42.40
2019-04-27T04:01:00.103Z,40.90
2019-04-27T04:02:02.392Z,42.10
2019-04-27T04:03:00.686Z,41.70
2019-04-27T04:04:00.024Z,40.10
2019-04-27T04:04:59.948Z,40.70
2019-04-27T04:06:00.391Z,40.10
2019-04-27T04:06:59.729Z,39.90
2019-04-27T04:08:00.473Z,40.30
2019-04-27T04:09:00.369Z,39.40
2019-04-27T04:10:00.409Z,40.00
2019-04-27T04:10:59.755Z,37.10
2019-04-27T04:12:02.285Z,36.60
2019-04-27T04:13:01.309Z,38.10
2019-04-27T04:14:00.279Z,36.00
2019-04-27T04:14:59.984Z,37.40
2019-04-27T04:16:00.179Z,35.00
2019-04-27T04:17:02.727Z,37.00
2019-04-27T04:17:59.666Z,35.00
2019-04-27T04:19:00.721Z,34.80
2019-04-27T04:20:01.379Z,36.10
2019-04-27T04:21:00.447Z,35.70
2019-04-27T04:21:59.931Z,32.20
2019-04-27T04:23:00.193Z,33.30
2019-04-27T04:24:01.015Z,35.10
2019-04-27T04:25:00.073Z,36.10
2019-04-27T04:25:59.843Z,35.70
2019-04-27T04:27:00.030Z,36.70
2019-04-27T04:28:00.656Z,35.90
2019-04-27T04:28:59.948Z,34.60
2019-04-27T04:29:59.606Z,33.90
2019-04-27T04:31:00.518Z,35.00
2019-04-27T04:32:00.472Z,34.00
2019-04-27T04:32:59.971Z,34.90
2019-04-27T04:33:59.933Z,31.80
2019-04-27T04:35:01.332Z,36.30
2019-04-27T04:35:59.814Z,33.70
2019-04-27T04:37:00.488Z,33.00
2019-04-27T04:38:00.212Z,32.40
2019-04-27T04:39:00.503Z,31.40
2019-04-27T04:39:59.808Z,33.10
2019-04-27T04:40:59.440Z,32.90
2019-04-27T04:41:59.647Z,31.50
2019-04-27T04:43:00.273Z,32.30
2019-04-27T04:43:59.870Z,33.40
2019-04-27T04:45:00.412Z,32.90
2019-04-27T04:45:59.655Z,33.40
2019-04-27T04:47:00.376Z,32.00
2019-04-27T04:47:59.632Z,30.30
2019-04-27T04:49:00.246Z,32.60
2019-04-27T04:50:10.361Z,32.50
2019-04-27T04:51:00.000Z,32.30
2019-04-27T04:51:59.527Z,32.70
2019-04-27T04:52:59.958Z,32.00
2019-04-27T04:53:59.815Z,33.50
2019-04-27T04:54:59.351Z,34.00
2019-04-27T04:56:00.378Z,32.30
2019-04-27T04:56:59.483Z,33.10
2019-04-27T04:57:59.181Z,32.30
2019-04-27T04:58:59.992Z,33.00
2019-04-27T05:00:51.308Z,29.10
2019-04-27T05:01:51.322Z,28.90
2019-04-27T05:02:51.265Z,31.40
2019-04-27T05:03:51.248Z,32.00
2019-04-27T05:04:51.232Z,31.40
2019-04-27T05:05:51.214Z,30.80
2019-04-27T05:06:51.196Z,30.20
2019-04-27T05:07:51.190Z,28.40
2019-04-27T05:08:51.155Z,29.10
2019-04-27T05:09:51.135Z,29.40
2019-04-27T05:10:51.128Z,28.90
2019-04-27T05:11:51.107Z,27.70
2019-04-27T05:12:51.082Z,28.60
2019-04-27T05:13:51.069Z,25.90
2019-04-27T05:14:51.045Z,26.40
2019-04-27T05:15:51.034Z,27.40
2019-04-27T05:16:51.011Z,26.60
2019-04-27T05:17:51.246Z,26.90
2019-04-27T05:18:50.975Z,26.70
2019-04-27T05:19:50.954Z,26.90
2019-04-27T05:20:50.939Z,26.40
2019-04-27T05:21:50.920Z,27.70
2019-04-27T05:22:50.902Z,26.30
2019-04-27T05:23:50.882Z,25.40
2019-04-27T05:24:50.866Z,28.40
2019-04-27T05:25:50.867Z,28.10
2019-04-27T05:26:50.832Z,29.10
2019-04-27T05:27:50.815Z,29.30
2019-04-27T05:28:50.800Z,28.80
2019-04-27T05:29:50.778Z,28.60
2019-04-27T05:30:50.756Z,27.30
2019-04-27T05:31:50.742Z,27.90
2019-04-27T05:32:50.724Z,30.40
2019-04-27T05:34:06.834Z,26.80
2019-04-27T05:35:05.720Z,30.00
2019-04-27T05:36:05.698Z,29.60
2019-04-27T05:37:05.682Z,30.40
2019-04-27T05:38:07.474Z,29.40
2019-04-27T05:39:05.652Z,30.80
2019-04-27T05:40:05.634Z,28.70
2019-04-27T05:41:05.613Z,28.30
2019-04-27T05:42:05.599Z,30.20
2019-04-27T05:43:05.576Z,30.20
2019-04-27T05:44:07.699Z,31.20
2019-04-27T05:45:05.538Z,30.60
2019-04-27T05:46:05.527Z,30.40
2019-04-27T05:47:09.974Z,28.90
2019-04-27T05:48:05.487Z,29.20
2019-04-27T05:49:06.282Z,28.70
2019-04-27T05:50:05.453Z,29.00
2019-04-27T05:51:05.437Z,29.70
2019-04-27T05:52:08.603Z,31.00
2019-04-27T05:53:05.399Z,28.70
2019-04-27T05:54:05.383Z,30.90
2019-04-27T05:55:05.363Z,30.00
2019-04-27T05:56:05.347Z,32.40
2019-04-27T05:57:05.327Z,31.10
2019-04-27T05:58:05.313Z,29.60
2019-04-27T05:59:05.292Z,29.90
2019-04-27T06:00:05.277Z,29.90
2019-04-27T06:01:05.460Z,29.40
2019-04-27T06:02:05.252Z,33.00
2019-04-27T06:03:05.220Z,30.60
2019-04-27T06:04:05.205Z,31.70
2019-04-27T06:05:05.185Z,28.90
2019-04-27T06:06:05.170Z,29.10
2019-04-27T06:07:05.153Z,28.40
2019-04-27T06:08:05.135Z,30.30
2019-04-27T06:09:05.119Z,30.30
2019-04-27T06:10:05.102Z,29.50
2019-04-27T06:11:05.083Z,30.10
2019-04-27T06:12:05.069Z,28.70
2019-04-27T06:13:05.056Z,30.40
2019-04-27T06:14:05.035Z,29.10
2019-04-27T06:15:05.011Z,30.00
2019-04-27T06:16:05.000Z,31.70
2019-04-27T06:17:04.981Z,28.90
2019-04-27T06:18:04.963Z,28.10
2019-04-27T06:19:04.948Z,27.40
2019-04-27T06:20:04.929Z,28.80
2019-04-27T06:21:04.911Z,31.30
2019-04-27T06:22:04.902Z,28.80
2019-04-27T06:23:04.877Z,30.20
2019-04-27T06:24:04.869Z,28.90
2019-04-27T06:25:04.846Z,27.10
2019-04-27T06:26:04.828Z,27.60
2019-04-27T06:27:04.809Z,28.70
2019-04-27T06:28:04.797Z,28.50
2019-04-27T06:29:04.775Z,28.20
2019-04-27T06:30:05.000Z,27.30
2019-04-27T06:31:04.745Z,25.70
2019-04-27T06:32:04.726Z,26.80
2019-04-27T06:33:04.710Z,25.50
2019-04-27T06:34:04.693Z,25.90
2019-04-27T06:35:04.674Z,25.80
2019-04-27T06:36:04.659Z,24.90
2019-04-27T06:37:04.644Z,24.90
2019-04-27T06:38:04.627Z,25.90
2019-04-27T06:39:04.614Z,25.50
2019-04-27T06:40:04.594Z,24.90
2019-04-27T06:41:04.578Z,23.70
2019-04-27T06:42:16.008Z,24.90
2019-04-27T06:43:04.542Z,24.40
2019-04-27T06:44:04.526Z,22.90
2019-04-27T06:45:04.509Z,22.50
2019-04-27T06:46:04.494Z,22.70
2019-04-27T06:47:04.483Z,23.80
2019-04-27T06:48:04.476Z,23.70
2019-04-27T06:49:04.444Z,22.40
2019-04-27T06:50:04.428Z,23.20
2019-04-27T06:51:05.676Z,22.10
2019-04-27T06:52:04.396Z,22.50
2019-04-27T06:53:04.381Z,22.30
2019-04-27T06:54:04.368Z,21.60
2019-04-27T06:55:06.282Z,22.20
2019-04-27T06:56:04.334Z,21.10
2019-04-27T06:57:04.314Z,21.30
2019-04-27T06:58:04.304Z,21.50
2019-04-27T06:59:04.286Z,21.50
2019-04-27T07:00:04.270Z,20.70
2019-04-27T07:01:04.254Z,22.00
2019-04-27T07:02:04.247Z,21.30
2019-04-27T07:03:04.223Z,21.50
2019-04-27T07:04:04.206Z,22.00
2019-04-27T07:05:04.187Z,22.10
2019-04-27T07:06:04.171Z,23.10
2019-04-27T07:07:04.160Z,22.30
2019-04-27T07:08:04.140Z,22.30
2019-04-27T07:09:04.127Z,21.90
2019-04-27T07:10:04.111Z,22.70
2019-04-27T07:11:04.116Z,23.40
2019-04-27T07:12:04.078Z,22.20
2019-04-27T07:13:04.063Z,23.60
2019-04-27T07:14:04.046Z,22.10
2019-04-27T07:15:04.030Z,22.80
2019-04-27T07:16:04.022Z,24.20
2019-04-27T07:17:04.002Z,23.70
2019-04-27T07:18:03.982Z,24.40
2019-04-27T07:19:03.969Z,25.00
2019-04-27T07:20:03.950Z,23.60
2019-04-27T07:21:16.190Z,25.00
2019-04-27T07:22:03.921Z,25.00
2019-04-27T07:23:03.901Z,26.40
2019-04-27T07:24:03.888Z,26.10
2019-04-27T07:25:03.872Z,25.90
2019-04-27T07:26:03.862Z,26.50
2019-04-27T07:27:03.842Z,26.70
2019-04-27T07:28:03.833Z,26.50
2019-04-27T07:29:03.807Z,26.30
2019-04-27T07:30:03.797Z,26.80
2019-04-27T07:31:03.780Z,26.20
2019-04-27T07:32:03.766Z,27.10
2019-04-27T07:33:03.749Z,26.10
2019-04-27T07:34:03.735Z,26.20
2019-04-27T07:35:03.724Z,27.50
2019-04-27T07:36:03.706Z,27.50
2019-04-27T07:37:03.689Z,27.70
2019-04-27T07:38:03.671Z,27.60
2019-04-27T07:39:03.657Z,27.30
2019-04-27T07:40:03.644Z,26.60
2019-04-27T07:41:03.637Z,27.70
2019-04-27T07:42:03.624Z,27.20
2019-04-27T07:43:03.597Z,27.20
2019-04-27T07:44:03.585Z,27.40
2019-04-27T07:45:03.568Z,27.20
2019-04-27T07:46:03.556Z,27.40
2019-04-27T07:47:03.539Z,27.20
2019-04-27T07:48:03.519Z,28.30
2019-04-27T07:49:03.514Z,28.90
2019-04-27T07:50:03.506Z,27.40
2019-04-27T07:51:03.480Z,27.20
2019-04-27T07:52:03.464Z,27.90
2019-04-27T07:53:03.450Z,27.50
2019-04-27T07:54:03.437Z,27.80
2019-04-27T07:55:03.417Z,28.00
2019-04-27T07:56:03.407Z,27.00
2019-04-27T07:57:03.391Z,28.00
2019-04-27T07:58:05.083Z,27.70
2019-04-27T07:59:03.363Z,27.00
2019-04-27T08:00:03.366Z,25.40
2019-04-27T08:01:03.339Z,25.50
2019-04-27T08:02:03.319Z,26.00
2019-04-27T08:03:03.308Z,24.60
2019-04-27T08:04:03.303Z,25.20
2019-04-27T08:05:03.279Z,25.60
2019-04-27T08:06:03.264Z,25.30
2019-04-27T08:07:03.254Z,25.90
2019-04-27T08:08:03.241Z,25.70
2019-04-27T08:09:03.222Z,26.70
2019-04-27T08:10:03.213Z,26.60
2019-04-27T08:11:03.201Z,27.10
2019-04-27T08:12:03.187Z,26.00
2019-04-27T08:13:03.171Z,26.20
2019-04-27T08:14:03.165Z,26.10
2019-04-27T08:15:03.146Z,26.00
2019-04-27T08:16:03.135Z,26.90
2019-04-27T08:17:03.129Z,25.90
2019-04-27T08:18:03.112Z,26.00
2019-04-27T08:19:03.104Z,25.30
2019-04-27T08:20:03.085Z,26.10
2019-04-27T08:21:03.074Z,25.90
2019-04-27T08:22:03.064Z,25.90
2019-04-27T08:23:03.055Z,24.90
2019-04-27T08:24:03.041Z,25.20
2019-04-27T08:25:03.036Z,25.70
2019-04-27T08:26:03.015Z,26.30
2019-04-27T08:27:03.005Z,25.40
2019-04-27T08:28:03.000Z,26.50
2019-04-27T08:29:02.981Z,26.70
2019-04-27T08:30:02.969Z,26.60
2019-04-27T08:31:02.958Z,26.20
2019-04-27T08:32:02.949Z,26.60
2019-04-27T08:33:02.933Z,26.00
2019-04-27T08:34:02.921Z,27.10
2019-04-27T08:35:02.911Z,26.80
2019-04-27T08:36:02.900Z,26.30
2019-04-27T08:37:02.891Z,26.30
2019-04-27T08:38:02.878Z,26.50
2019-04-27T08:39:02.874Z,27.00
2019-04-27T08:40:02.858Z,27.10
2019-04-27T08:41:02.846Z,27.90
2019-04-27T08:42:02.831Z,27.50
2019-04-27T08:43:02.820Z,27.90
2019-04-27T08:44:02.804Z,28.50
2019-04-27T08:45:02.799Z,27.60
2019-04-27T08:46:02.783Z,26.80
2019-04-27T08:47:02.770Z,27.50
2019-04-27T08:48:02.759Z,27.50
2019-04-27T08:49:02.749Z,27.00
2019-04-27T08:50:02.732Z,28.30
2019-04-27T08:51:02.725Z,28.00
2019-04-27T08:52:02.719Z,28.50
2019-04-27T08:53:02.702Z,27.60
2019-04-27T08:54:02.688Z,26.00
2019-04-27T08:55:02.679Z,26.90
2019-04-27T08:56:02.673Z,27.70
2019-04-27T08:57:02.653Z,26.30
2019-04-27T08:58:02.646Z,26.50
2019-04-27T08:59:02.631Z,26.30
2019-04-27T09:00:02.616Z,26.30
2019-04-27T09:01:02.607Z,26.00
2019-04-27T09:02:02.599Z,26.20
2019-04-27T09:03:02.578Z,25.20
2019-04-27T09:04:02.571Z,26.00
2019-04-27T09:05:02.557Z,25.70
2019-04-27T09:06:02.542Z,26.90
2019-04-27T09:07:05.908Z,26.20
2019-04-27T09:08:02.521Z,27.00
2019-04-27T09:09:02.507Z,25.50
2019-04-27T09:10:02.499Z,25.50
2019-04-27T09:11:02.487Z,27.00
2019-04-27T09:12:02.476Z,26.20
2019-04-27T09:13:02.468Z,25.80
2019-04-27T09:14:02.458Z,25.00
2019-04-27T09:15:02.440Z,25.00
2019-04-27T09:16:02.435Z,24.70
2019-04-27T09:17:03.050Z,24.30
2019-04-27T09:18:02.411Z,24.30
2019-04-27T09:19:02.398Z,23.90
2019-04-27T09:20:02.388Z,25.40
2019-04-27T09:21:02.385Z,25.10
2019-04-27T09:22:12.204Z,25.60
2019-04-27T09:23:02.362Z,25.40
2019-04-27T09:24:02.344Z,24.10
2019-04-27T09:25:02.341Z,24.20
2019-04-27T09:26:02.328Z,24.80
2019-04-27T09:27:02.314Z,23.70
2019-04-27T09:28:02.302Z,24.00
2019-04-27T09:29:02.295Z,24.40
2019-04-27T09:30:02.288Z,24.00
2019-04-27T09:31:02.293Z,24.10
2019-04-27T09:32:02.269Z,23.60
2019-04-27T09:33:02.253Z,23.50
2019-04-27T09:34:02.240Z,23.90
2019-04-27T09:35:02.241Z,23.40
2019-04-27T09:36:02.224Z,23.10
2019-04-27T09:37:02.215Z,23.20
2019-04-27T09:38:02.204Z,22.60
2019-04-27T09:39:02.191Z,22.10
2019-04-27T09:40:02.192Z,22.30
2019-04-27T09:41:02.176Z,20.30
2019-04-27T09:42:02.173Z,21.30
2019-04-27T09:43:02.157Z,21.30
2019-04-27T09:44:02.552Z,21.10
2019-04-27T09:45:02.138Z,21.30
2019-04-27T09:46:02.138Z,21.10
2019-04-27T09:47:02.118Z,20.80
2019-04-27T09:48:02.113Z,20.60
2019-04-27T09:49:02.101Z,21.00
2019-04-27T09:50:02.095Z,20.80
2019-04-27T09:51:02.080Z,20.50
2019-04-27T09:52:02.074Z,19.80
2019-04-27T09:53:02.059Z,19.10
2019-04-27T09:54:02.052Z,19.00
2019-04-27T09:55:02.043Z,19.50
2019-04-27T09:56:02.032Z,19.10
2019-04-27T09:57:02.035Z,19.70
2019-04-27T09:58:02.015Z,20.10
2019-04-27T09:59:02.008Z,20.90
2019-04-27T10:00:02.007Z,19.80
2019-04-27T10:01:01.996Z,19.10
2019-04-27T10:02:01.984Z,19.80
2019-04-27T10:03:01.976Z,18.80
2019-04-27T10:04:01.962Z,19.60
2019-04-27T10:05:01.953Z,19.00
2019-04-27T10:06:01.943Z,19.20
2019-04-27T10:07:01.950Z,19.50
2019-04-27T10:08:01.929Z,19.50
2019-04-27T10:09:01.916Z,19.40
2019-04-27T10:10:01.915Z,19.00
2019-04-27T10:11:01.903Z,18.80
2019-04-27T10:12:01.893Z,17.80
2019-04-27T10:13:01.889Z,18.30
2019-04-27T10:14:01.882Z,18.60
2019-04-27T10:15:01.866Z,18.30
2019-04-27T10:16:01.862Z,17.50
2019-04-27T10:17:01.850Z,17.70
2019-04-27T10:18:01.848Z,17.80
2019-04-27T10:19:01.832Z,17.20
2019-04-27T10:20:01.835Z,17.20
2019-04-27T10:21:02.318Z,17.70
2019-04-27T10:22:01.824Z,16.40
2019-04-27T10:23:01.806Z,15.50
2019-04-27T10:24:01.796Z,15.80
2019-04-27T10:25:01.786Z,16.10
2019-04-27T10:26:01.778Z,16.30
2019-04-27T10:27:01.770Z,17.00
2019-04-27T10:28:01.765Z,16.20
2019-04-27T10:29:01.757Z,16.90
2019-04-27T10:30:01.755Z,17.00
2019-04-27T10:31:01.739Z,16.80
2019-04-27T10:32:01.732Z,16.80
2019-04-27T10:33:07.712Z,16.30
2019-04-27T10:34:01.716Z,16.00
2019-04-27T10:35:01.715Z,16.40
2019-04-27T10:36:01.704Z,16.60
2019-04-27T10:37:01.702Z,16.50
2019-04-27T10:38:01.689Z,16.80
2019-04-27T10:39:01.683Z,16.60
2019-04-27T10:40:01.671Z,16.20
2019-04-27T10:41:01.667Z,16.60
2019-04-27T10:42:01.658Z,16.90
2019-04-27T10:43:01.652Z,17.50
2019-04-27T10:44:01.644Z,16.90
2019-04-27T10:45:01.650Z,16.40
2019-04-27T10:46:01.641Z,16.20
2019-04-27T10:47:01.633Z,16.20
2019-04-27T10:48:01.620Z,15.50
2019-04-27T10:49:01.622Z,16.70
2019-04-27T10:50:01.604Z,16.40
2019-04-27T10:51:01.598Z,16.30
2019-04-27T10:52:01.591Z,17.30
2019-04-27T10:53:01.585Z,16.90
2019-04-27T10:54:01.585Z,16.70
2019-04-27T10:55:01.574Z,17.00
2019-04-27T10:56:01.563Z,17.10
2019-04-27T10:57:01.562Z,16.50
2019-04-27T10:58:01.550Z,16.90
2019-04-27T10:59:01.546Z,17.70
2019-04-27T11:00:01.546Z,17.10
2019-04-27T11:01:01.534Z,17.70
2019-04-27T11:02:01.539Z,16.70
2019-04-27T11:03:01.519Z,16.20
2019-04-27T11:04:01.517Z,16.70
2019-04-27T11:05:01.504Z,16.40
2019-04-27T11:06:01.499Z,17.60
2019-04-27T11:07:01.497Z,17.70
2019-04-27T11:08:01.489Z,16.90
2019-04-27T11:09:01.480Z,16.50
2019-04-27T11:10:01.486Z,16.30
2019-04-27T11:11:01.471Z,16.30
2019-04-27T11:12:01.462Z,16.80
2019-04-27T11:13:01.461Z,16.80
2019-04-27T11:14:01.453Z,16.70
2019-04-27T11:15:01.444Z,16.90
2019-04-27T11:16:01.443Z,17.10
2019-04-27T11:17:01.435Z,16.80
2019-04-27T11:18:01.439Z,16.60
2019-04-27T11:19:01.423Z,17.00
2019-04-27T11:20:02.866Z,15.60
2019-04-27T11:21:01.412Z,15.80
2019-04-27T11:22:01.409Z,15.80
2019-04-27T11:23:09.445Z,16.20
2019-04-27T11:24:01.399Z,15.30
2019-04-27T11:25:01.392Z,16.10
2019-04-27T11:26:02.515Z,16.90
2019-04-27T11:27:01.379Z,16.60
2019-04-27T11:28:01.377Z,16.70
2019-04-27T11:29:01.377Z,16.90
2019-04-27T11:30:01.372Z,16.80
2019-04-27T11:31:01.354Z,16.80
2019-04-27T11:32:01.353Z,15.70
2019-04-27T11:33:01.342Z,13.90
2019-04-27T11:34:01.337Z,14.20
2019-04-27T11:35:01.337Z,14.00
2019-04-27T11:36:01.337Z,14.00
2019-04-27T11:37:01.322Z,14.40
2019-04-27T11:38:01.317Z,13.80
2019-04-27T11:39:01.313Z,14.20
2019-04-27T11:40:01.307Z,14.40
2019-04-27T11:41:01.302Z,14.50
2019-04-27T11:42:01.294Z,14.50
2019-04-27T11:43:01.288Z,14.20
2019-04-27T11:44:01.283Z,14.40
2019-04-27T11:45:01.287Z,13.90
2019-04-27T11:46:01.275Z,15.00
2019-04-27T11:47:01.283Z,15.20
2019-04-27T11:48:01.265Z,15.00
2019-04-27T11:49:01.251Z,15.00
2019-04-27T11:50:01.248Z,14.70
2019-04-27T11:51:01.247Z,14.70
2019-04-27T11:52:01.239Z,14.90
2019-04-27T11:53:01.234Z,15.10
2019-04-27T11:54:01.232Z,15.40
2019-04-27T11:55:01.223Z,15.40
2019-04-27T11:56:01.221Z,15.40
2019-04-27T11:57:01.209Z,15.50
2019-04-27T11:58:01.208Z,15.40
2019-04-27T11:59:01.197Z,15.70
2019-04-27T12:00:01.190Z,15.40
2019-04-27T12:01:01.187Z,14.60
2019-04-27T12:02:01.181Z,14.20
2019-04-27T12:03:01.175Z,13.60
2019-04-27T12:04:01.179Z,13.20
2019-04-27T12:05:01.169Z,13.70
2019-04-27T12:06:01.166Z,13.60
2019-04-27T12:07:01.157Z,14.60
2019-04-27T12:08:01.151Z,14.00
2019-04-27T12:09:01.147Z,15.10
2019-04-27T12:10:01.143Z,14.60
2019-04-27T12:11:01.141Z,14.40
2019-04-27T12:12:12.523Z,16.10
2019-04-27T12:13:01.129Z,15.20
2019-04-27T12:14:01.121Z,15.30
2019-04-27T12:15:01.126Z,14.60
2019-04-27T12:16:01.116Z,15.40
2019-04-27T12:17:01.113Z,15.70
2019-04-27T12:18:01.108Z,15.50
2019-04-27T12:19:01.109Z,15.50
2019-04-27T12:20:01.101Z,15.00
2019-04-27T12:21:01.095Z,13.90
2019-04-27T12:22:01.092Z,14.40
2019-04-27T12:23:01.085Z,13.90
2019-04-27T12:24:01.083Z,14.10
2019-04-27T12:25:01.079Z,14.20
2019-04-27T12:26:01.079Z,13.80
2019-04-27T12:27:01.073Z,13.70
2019-04-27T12:28:01.067Z,13.10
2019-04-27T12:29:01.070Z,12.70
2019-04-27T12:30:01.070Z,13.20
2019-04-27T12:31:01.071Z,12.70
2019-04-27T12:32:01.061Z,12.20
2019-04-27T12:33:01.060Z,12.50
2019-04-27T12:34:01.056Z,12.10
2019-04-27T12:35:01.059Z,12.50
2019-04-27T12:36:01.065Z,13.10
2019-04-27T12:37:01.061Z,12.60
2019-04-27T12:38:01.066Z,13.10
2019-04-27T12:39:01.055Z,13.00
2019-04-27T12:40:01.080Z,12.90
2019-04-27T12:41:01.077Z,13.00
2019-04-27T12:42:01.054Z,13.10
2019-04-27T12:43:01.046Z,11.90
2019-04-27T12:44:01.047Z,12.90
2019-04-27T12:45:01.045Z,12.20
2019-04-27T12:46:01.049Z,11.70
2019-04-27T12:47:02.659Z,11.20